sensor_id;sensor_type;location;lat;lon;timestamp;temperature;humidity
67182;DHT22;54114;53.524;49.396;2023-05-07T00:00:28;10.40;57.70
67182;DHT22;54114;53.524;49.396;2023-05-07T00:02:58;10.40;57.70
67182;DHT22;54114;53.524;49.396;2023-05-07T00:05:27;10.40;57.30
67182;DHT22;54114;53.524;49.396;2023-05-07T00:07:57;10.30;57.40
67182;DHT22;54114;53.524;49.396;2023-05-07T00:10:23;10.20;57.20
67182;DHT22;54114;53.524;49.396;2023-05-07T00:12:51;10.20;57.10
67182;DHT22;54114;53.524;49.396;2023-05-07T00:15:20;10.10;57.20
67182;DHT22;54114;53.524;49.396;2023-05-07T00:17:49;10.00;57.30
67182;DHT22;54114;53.524;49.396;2023-05-07T00:20:16;10.00;57.50
67182;DHT22;54114;53.524;49.396;2023-05-07T00:22:45;9.90;57.40
67182;DHT22;54114;53.524;49.396;2023-05-07T00:25:14;9.90;57.20
67182;DHT22;54114;53.524;49.396;2023-05-07T00:27:46;9.90;57.00
67182;DHT22;54114;53.524;49.396;2023-05-07T00:30:13;9.80;56.90
67182;DHT22;54114;53.524;49.396;2023-05-07T00:32:40;9.80;57.10
67182;DHT22;54114;53.524;49.396;2023-05-07T00:35:07;9.80;56.90
67182;DHT22;54114;53.524;49.396;2023-05-07T00:37:39;9.80;56.70
67182;DHT22;54114;53.524;49.396;2023-05-07T00:40:06;9.80;56.50
67182;DHT22;54114;53.524;49.396;2023-05-07T00:42:36;9.70;56.40
67182;DHT22;54114;53.524;49.396;2023-05-07T00:45:03;9.70;56.30
67182;DHT22;54114;53.524;49.396;2023-05-07T00:47:33;9.70;56.10
67182;DHT22;54114;53.524;49.396;2023-05-07T00:50:03;9.60;56.10
67182;DHT22;54114;53.524;49.396;2023-05-07T00:52:30;9.50;56.10
67182;DHT22;54114;53.524;49.396;2023-05-07T00:54:56;9.50;56.20
67182;DHT22;54114;53.524;49.396;2023-05-07T00:57:24;9.40;56.10
67182;DHT22;54114;53.524;49.396;2023-05-07T00:59:52;9.40;56.10
67182;DHT22;54114;53.524;49.396;2023-05-07T01:02:21;9.40;56.10
67182;DHT22;54114;53.524;49.396;2023-05-07T01:04:50;9.40;56.10
67182;DHT22;54114;53.524;49.396;2023-05-07T01:07:17;9.40;56.20
67182;DHT22;54114;53.524;49.396;2023-05-07T01:09:44;9.30;56.20
67182;DHT22;54114;53.524;49.396;2023-05-07T01:12:10;9.30;56.20
67182;DHT22;54114;53.524;49.396;2023-05-07T01:14:43;9.30;56.20
67182;DHT22;54114;53.524;49.396;2023-05-07T01:17:09;9.30;56.30
67182;DHT22;54114;53.524;49.396;2023-05-07T01:19:36;9.30;56.30
67182;DHT22;54114;53.524;49.396;2023-05-07T01:22:07;9.30;56.40
67182;DHT22;54114;53.524;49.396;2023-05-07T01:24:36;9.30;56.40
67182;DHT22;54114;53.524;49.396;2023-05-07T01:27:04;9.30;56.40
67182;DHT22;54114;53.524;49.396;2023-05-07T01:29:33;9.30;56.30
67182;DHT22;54114;53.524;49.396;2023-05-07T01:32:03;9.20;56.20
67182;DHT22;54114;53.524;49.396;2023-05-07T01:34:34;9.20;56.30
67182;DHT22;54114;53.524;49.396;2023-05-07T01:37:02;9.20;56.30
67182;DHT22;54114;53.524;49.396;2023-05-07T01:39:29;9.20;56.40
67182;DHT22;54114;53.524;49.396;2023-05-07T01:41:56;9.20;56.60
67182;DHT22;54114;53.524;49.396;2023-05-07T01:44:26;9.20;56.60
67182;DHT22;54114;53.524;49.396;2023-05-07T01:46:53;9.20;56.60
67182;DHT22;54114;53.524;49.396;2023-05-07T01:49:20;9.30;56.60
67182;DHT22;54114;53.524;49.396;2023-05-07T01:51:47;9.30;56.70
67182;DHT22;54114;53.524;49.396;2023-05-07T01:54:14;9.30;56.50
67182;DHT22;54114;53.524;49.396;2023-05-07T01:56:42;9.40;56.50
67182;DHT22;54114;53.524;49.396;2023-05-07T01:59:08;9.40;56.40
67182;DHT22;54114;53.524;49.396;2023-05-07T02:01:35;9.50;56.90
67182;DHT22;54114;53.524;49.396;2023-05-07T02:04:02;9.50;56.30
67182;DHT22;54114;53.524;49.396;2023-05-07T02:06:28;9.50;56.30
67182;DHT22;54114;53.524;49.396;2023-05-07T02:09:01;9.50;56.10
67182;DHT22;54114;53.524;49.396;2023-05-07T02:11:27;9.60;56.10
67182;DHT22;54114;53.524;49.396;2023-05-07T02:13:54;9.70;56.00
67182;DHT22;54114;53.524;49.396;2023-05-07T02:16:21;9.70;56.00
67182;DHT22;54114;53.524;49.396;2023-05-07T02:18:49;9.70;55.80
67182;DHT22;54114;53.524;49.396;2023-05-07T02:21:15;9.80;55.80
67182;DHT22;54114;53.524;49.396;2023-05-07T02:23:42;9.80;55.70
67182;DHT22;54114;53.524;49.396;2023-05-07T02:26:09;9.90;55.60
67182;DHT22;54114;53.524;49.396;2023-05-07T02:28:36;10.10;55.70
67182;DHT22;54114;53.524;49.396;2023-05-07T02:31:03;10.20;55.50
67182;DHT22;54114;53.524;49.396;2023-05-07T02:33:30;10.30;55.40
67182;DHT22;54114;53.524;49.396;2023-05-07T02:36:05;10.40;55.20
67182;DHT22;54114;53.524;49.396;2023-05-07T02:38:33;10.60;55.00
67182;DHT22;54114;53.524;49.396;2023-05-07T02:41:00;10.80;54.70
67182;DHT22;54114;53.524;49.396;2023-05-07T02:43:26;10.90;54.30
67182;DHT22;54114;53.524;49.396;2023-05-07T02:46:06;11.20;53.90
67182;DHT22;54114;53.524;49.396;2023-05-07T02:48:35;11.40;53.30
67182;DHT22;54114;53.524;49.396;2023-05-07T02:51:05;11.60;52.70
67182;DHT22;54114;53.524;49.396;2023-05-07T02:53:32;11.80;52.30
67182;DHT22;54114;53.524;49.396;2023-05-07T02:55:59;12.00;51.90
67182;DHT22;54114;53.524;49.396;2023-05-07T02:58:27;12.10;51.40
67182;DHT22;54114;53.524;49.396;2023-05-07T03:00:54;12.30;50.90
67182;DHT22;54114;53.524;49.396;2023-05-07T03:03:21;12.50;50.60
67182;DHT22;54114;53.524;49.396;2023-05-07T03:05:49;12.60;50.30
67182;DHT22;54114;53.524;49.396;2023-05-07T03:08:16;12.70;50.60
67182;DHT22;54114;53.524;49.396;2023-05-07T03:10:43;12.80;49.80
67182;DHT22;54114;53.524;49.396;2023-05-07T03:13:09;13.00;49.50
67182;DHT22;54114;53.524;49.396;2023-05-07T03:15:36;13.20;49.00
67182;DHT22;54114;53.524;49.396;2023-05-07T03:18:05;13.30;48.60
67182;DHT22;54114;53.524;49.396;2023-05-07T03:20:34;13.40;48.20
67182;DHT22;54114;53.524;49.396;2023-05-07T03:23:02;13.60;47.60
67182;DHT22;54114;53.524;49.396;2023-05-07T03:25:32;13.70;47.20
67182;DHT22;54114;53.524;49.396;2023-05-07T03:27:59;13.80;46.90
67182;DHT22;54114;53.524;49.396;2023-05-07T03:30:30;14.00;46.80
67182;DHT22;54114;53.524;49.396;2023-05-07T03:33:02;14.20;46.30
67182;DHT22;54114;53.524;49.396;2023-05-07T03:35:28;14.30;45.00
67182;DHT22;54114;53.524;49.396;2023-05-07T03:37:55;14.40;44.50
67182;DHT22;54114;53.524;49.396;2023-05-07T03:40:26;14.40;44.30
67182;DHT22;54114;53.524;49.396;2023-05-07T03:42:53;14.50;43.70
67182;DHT22;54114;53.524;49.396;2023-05-07T03:45:23;14.70;43.50
67182;DHT22;54114;53.524;49.396;2023-05-07T03:47:49;14.80;43.10
67182;DHT22;54114;53.524;49.396;2023-05-07T03:50:16;14.80;42.60
67182;DHT22;54114;53.524;49.396;2023-05-07T03:52:43;14.90;42.50
67182;DHT22;54114;53.524;49.396;2023-05-07T03:55:12;15.00;41.80
67182;DHT22;54114;53.524;49.396;2023-05-07T03:57:41;15.00;41.70
67182;DHT22;54114;53.524;49.396;2023-05-07T04:00:08;15.20;41.80
67182;DHT22;54114;53.524;49.396;2023-05-07T04:02:35;15.40;41.30
67182;DHT22;54114;53.524;49.396;2023-05-07T04:05:04;15.70;40.10
67182;DHT22;54114;53.524;49.396;2023-05-07T04:07:33;15.90;39.80
67182;DHT22;54114;53.524;49.396;2023-05-07T04:10:06;16.10;39.30
67182;DHT22;54114;53.524;49.396;2023-05-07T04:12:38;16.00;38.50
67182;DHT22;54114;53.524;49.396;2023-05-07T04:15:10;15.90;38.10
67182;DHT22;54114;53.524;49.396;2023-05-07T04:17:39;16.00;38.20
67182;DHT22;54114;53.524;49.396;2023-05-07T04:20:15;16.10;37.80
67182;DHT22;54114;53.524;49.396;2023-05-07T04:22:47;16.20;37.20
67182;DHT22;54114;53.524;49.396;2023-05-07T04:25:13;16.20;37.10
67182;DHT22;54114;53.524;49.396;2023-05-07T04:27:42;16.20;36.90
67182;DHT22;54114;53.524;49.396;2023-05-07T04:30:14;16.30;37.00
67182;DHT22;54114;53.524;49.396;2023-05-07T04:32:45;16.50;36.70
67182;DHT22;54114;53.524;49.396;2023-05-07T04:35:14;16.80;36.60
67182;DHT22;54114;53.524;49.396;2023-05-07T04:37:46;16.90;36.70
67182;DHT22;54114;53.524;49.396;2023-05-07T04:40:12;17.10;36.50
67182;DHT22;54114;53.524;49.396;2023-05-07T04:42:46;17.30;36.70
67182;DHT22;54114;53.524;49.396;2023-05-07T04:45:13;17.30;36.30
67182;DHT22;54114;53.524;49.396;2023-05-07T04:47:40;17.50;36.00
67182;DHT22;54114;53.524;49.396;2023-05-07T04:50:12;17.50;35.70
67182;DHT22;54114;53.524;49.396;2023-05-07T04:52:42;17.60;35.60
67182;DHT22;54114;53.524;49.396;2023-05-07T04:55:15;17.50;35.40
67182;DHT22;54114;53.524;49.396;2023-05-07T04:57:46;17.60;35.20
67182;DHT22;54114;53.524;49.396;2023-05-07T05:00:16;17.70;34.70
67182;DHT22;54114;53.524;49.396;2023-05-07T05:02:45;17.70;34.20
67182;DHT22;54114;53.524;49.396;2023-05-07T05:05:14;17.70;34.10
67182;DHT22;54114;53.524;49.396;2023-05-07T05:07:41;18.00;33.30
67182;DHT22;54114;53.524;49.396;2023-05-07T05:10:08;18.10;32.90
67182;DHT22;54114;53.524;49.396;2023-05-07T05:12:37;18.30;32.60
67182;DHT22;54114;53.524;49.396;2023-05-07T05:15:07;18.30;32.40
67182;DHT22;54114;53.524;49.396;2023-05-07T05:17:42;18.40;32.30
67182;DHT22;54114;53.524;49.396;2023-05-07T05:20:11;18.50;32.50
67182;DHT22;54114;53.524;49.396;2023-05-07T05:22:45;18.60;31.40
67182;DHT22;54114;53.524;49.396;2023-05-07T05:25:14;18.60;31.30
67182;DHT22;54114;53.524;49.396;2023-05-07T05:27:43;18.60;31.40
67182;DHT22;54114;53.524;49.396;2023-05-07T05:30:16;18.80;31.20
67182;DHT22;54114;53.524;49.396;2023-05-07T05:32:47;18.90;31.00
67182;DHT22;54114;53.524;49.396;2023-05-07T05:35:16;19.00;30.60
67182;DHT22;54114;53.524;49.396;2023-05-07T05:37:50;19.10;30.30
67182;DHT22;54114;53.524;49.396;2023-05-07T05:40:21;19.30;30.10
67182;DHT22;54114;53.524;49.396;2023-05-07T05:42:48;19.60;30.20
67182;DHT22;54114;53.524;49.396;2023-05-07T05:45:15;19.80;30.20
67182;DHT22;54114;53.524;49.396;2023-05-07T05:47:44;20.20;29.80
67182;DHT22;54114;53.524;49.396;2023-05-07T05:50:16;20.40;29.40
67182;DHT22;54114;53.524;49.396;2023-05-07T05:52:44;20.30;29.30
67182;DHT22;54114;53.524;49.396;2023-05-07T05:55:11;20.30;29.30
67182;DHT22;54114;53.524;49.396;2023-05-07T05:57:38;20.60;28.90
67182;DHT22;54114;53.524;49.396;2023-05-07T06:00:08;20.70;28.20
67182;DHT22;54114;53.524;49.396;2023-05-07T06:02:35;20.70;28.10
67182;DHT22;54114;53.524;49.396;2023-05-07T06:05:04;20.70;27.90
67182;DHT22;54114;53.524;49.396;2023-05-07T06:07:34;20.90;28.00
67182;DHT22;54114;53.524;49.396;2023-05-07T06:10:03;21.00;27.60
67182;DHT22;54114;53.524;49.396;2023-05-07T06:12:30;20.80;27.60
67182;DHT22;54114;53.524;49.396;2023-05-07T06:15:01;20.90;27.70
67182;DHT22;54114;53.524;49.396;2023-05-07T06:17:30;21.00;27.60
67182;DHT22;54114;53.524;49.396;2023-05-07T06:19:59;21.10;27.50
67182;DHT22;54114;53.524;49.396;2023-05-07T06:22:30;21.30;27.20
67182;DHT22;54114;53.524;49.396;2023-05-07T06:25:02;21.40;27.10
67182;DHT22;54114;53.524;49.396;2023-05-07T06:27:30;21.40;26.70
67182;DHT22;54114;53.524;49.396;2023-05-07T06:30:01;21.50;26.40
67182;DHT22;54114;53.524;49.396;2023-05-07T06:32:28;21.70;26.20
67182;DHT22;54114;53.524;49.396;2023-05-07T06:35:00;21.50;26.10
67182;DHT22;54114;53.524;49.396;2023-05-07T06:37:26;21.00;26.20
67182;DHT22;54114;53.524;49.396;2023-05-07T06:39:53;20.60;26.70
67182;DHT22;54114;53.524;49.396;2023-05-07T06:42:20;20.50;26.60
67182;DHT22;54114;53.524;49.396;2023-05-07T06:44:46;20.70;26.70
67182;DHT22;54114;53.524;49.396;2023-05-07T06:47:16;20.90;26.20
67182;DHT22;54114;53.524;49.396;2023-05-07T06:49:42;21.20;26.20
67182;DHT22;54114;53.524;49.396;2023-05-07T06:52:11;21.60;26.10
67182;DHT22;54114;53.524;49.396;2023-05-07T06:54:40;21.80;25.40
67182;DHT22;54114;53.524;49.396;2023-05-07T06:57:07;22.10;25.60
67182;DHT22;54114;53.524;49.396;2023-05-07T06:59:36;22.40;25.10
67182;DHT22;54114;53.524;49.396;2023-05-07T07:02:05;22.50;24.60
67182;DHT22;54114;53.524;49.396;2023-05-07T07:04:36;22.60;23.90
67182;DHT22;54114;53.524;49.396;2023-05-07T07:07:03;22.60;23.40
67182;DHT22;54114;53.524;49.396;2023-05-07T07:09:30;22.60;22.90
67182;DHT22;54114;53.524;49.396;2023-05-07T07:12:01;22.70;22.70
67182;DHT22;54114;53.524;49.396;2023-05-07T07:14:28;22.80;22.40
67182;DHT22;54114;53.524;49.396;2023-05-07T07:16:55;22.80;22.30
67182;DHT22;54114;53.524;49.396;2023-05-07T07:19:26;22.80;22.40
67182;DHT22;54114;53.524;49.396;2023-05-07T07:21:53;22.90;22.50
67182;DHT22;54114;53.524;49.396;2023-05-07T07:24:19;22.90;22.60
67182;DHT22;54114;53.524;49.396;2023-05-07T07:26:49;22.90;22.90
67182;DHT22;54114;53.524;49.396;2023-05-07T07:29:20;23.10;22.70
67182;DHT22;54114;53.524;49.396;2023-05-07T07:31:52;23.10;22.60
67182;DHT22;54114;53.524;49.396;2023-05-07T07:34:21;23.00;22.80
67182;DHT22;54114;53.524;49.396;2023-05-07T07:36:50;22.80;22.80
67182;DHT22;54114;53.524;49.396;2023-05-07T07:39:19;22.60;22.80
67182;DHT22;54114;53.524;49.396;2023-05-07T07:41:48;22.40;22.70
67182;DHT22;54114;53.524;49.396;2023-05-07T07:44:14;22.40;22.90
67182;DHT22;54114;53.524;49.396;2023-05-07T07:46:46;22.60;22.80
67182;DHT22;54114;53.524;49.396;2023-05-07T07:49:13;22.80;22.70
67182;DHT22;54114;53.524;49.396;2023-05-07T07:51:40;22.80;22.80
67182;DHT22;54114;53.524;49.396;2023-05-07T07:54:09;22.80;22.50
67182;DHT22;54114;53.524;49.396;2023-05-07T07:56:36;22.90;22.50
67182;DHT22;54114;53.524;49.396;2023-05-07T07:59:03;23.00;22.60
67182;DHT22;54114;53.524;49.396;2023-05-07T08:01:30;23.20;22.50
67182;DHT22;54114;53.524;49.396;2023-05-07T08:03:59;23.60;22.40
67182;DHT22;54114;53.524;49.396;2023-05-07T08:06:31;23.80;22.20
67182;DHT22;54114;53.524;49.396;2023-05-07T08:09:03;24.20;21.90
67182;DHT22;54114;53.524;49.396;2023-05-07T08:11:32;24.20;21.90
67182;DHT22;54114;53.524;49.396;2023-05-07T08:14:01;23.90;22.00
67182;DHT22;54114;53.524;49.396;2023-05-07T08:16:31;23.90;22.00
67182;DHT22;54114;53.524;49.396;2023-05-07T08:19:00;23.80;22.00
67182;DHT22;54114;53.524;49.396;2023-05-07T08:21:27;23.90;22.00
67182;DHT22;54114;53.524;49.396;2023-05-07T08:23:56;23.60;22.00
67182;DHT22;54114;53.524;49.396;2023-05-07T08:26:22;23.40;22.40
67182;DHT22;54114;53.524;49.396;2023-05-07T08:28:51;23.60;22.30
67182;DHT22;54114;53.524;49.396;2023-05-07T08:31:18;23.90;22.30
67182;DHT22;54114;53.524;49.396;2023-05-07T08:33:44;24.20;22.10
67182;DHT22;54114;53.524;49.396;2023-05-07T08:36:11;24.30;21.90
67182;DHT22;54114;53.524;49.396;2023-05-07T08:38:38;24.40;21.60
67182;DHT22;54114;53.524;49.396;2023-05-07T08:41:10;24.20;21.80
67182;DHT22;54114;53.524;49.396;2023-05-07T08:43:40;23.90;21.90
67182;DHT22;54114;53.524;49.396;2023-05-07T08:46:12;24.00;22.10
67182;DHT22;54114;53.524;49.396;2023-05-07T08:48:48;24.20;22.40
67182;DHT22;54114;53.524;49.396;2023-05-07T08:51:19;24.60;22.30
67182;DHT22;54114;53.524;49.396;2023-05-07T08:53:48;24.90;21.40
67182;DHT22;54114;53.524;49.396;2023-05-07T08:56:16;25.20;21.50
67182;DHT22;54114;53.524;49.396;2023-05-07T08:58:44;25.60;21.60
67182;DHT22;54114;53.524;49.396;2023-05-07T09:01:13;25.60;21.40
67182;DHT22;54114;53.524;49.396;2023-05-07T09:03:49;25.30;21.30
67182;DHT22;54114;53.524;49.396;2023-05-07T09:06:18;25.30;21.50
67182;DHT22;54114;53.524;49.396;2023-05-07T09:08:50;25.40;21.70
67182;DHT22;54114;53.524;49.396;2023-05-07T09:11:23;25.50;21.40
67182;DHT22;54114;53.524;49.396;2023-05-07T09:13:56;25.50;21.20
67182;DHT22;54114;53.524;49.396;2023-05-07T09:16:28;25.60;21.20
67182;DHT22;54114;53.524;49.396;2023-05-07T09:18:58;25.50;21.20
67182;DHT22;54114;53.524;49.396;2023-05-07T09:21:28;25.40;21.10
67182;DHT22;54114;53.524;49.396;2023-05-07T09:24:00;25.00;21.30
67182;DHT22;54114;53.524;49.396;2023-05-07T09:26:29;24.70;21.20
67182;DHT22;54114;53.524;49.396;2023-05-07T09:29:02;24.50;21.30
67182;DHT22;54114;53.524;49.396;2023-05-07T09:31:39;24.20;21.40
67182;DHT22;54114;53.524;49.396;2023-05-07T09:34:09;24.20;21.50
67182;DHT22;54114;53.524;49.396;2023-05-07T09:36:40;24.30;21.60
67182;DHT22;54114;53.524;49.396;2023-05-07T09:39:09;24.30;21.30
67182;DHT22;54114;53.524;49.396;2023-05-07T09:41:46;24.00;21.50
67182;DHT22;54114;53.524;49.396;2023-05-07T09:44:18;23.80;21.70
67182;DHT22;54114;53.524;49.396;2023-05-07T09:46:53;23.90;21.50
67182;DHT22;54114;53.524;49.396;2023-05-07T09:49:23;23.90;21.70
67182;DHT22;54114;53.524;49.396;2023-05-07T09:51:56;23.80;21.80
67182;DHT22;54114;53.524;49.396;2023-05-07T09:54:32;23.50;21.90
67182;DHT22;54114;53.524;49.396;2023-05-07T09:57:02;23.20;21.80
67182;DHT22;54114;53.524;49.396;2023-05-07T09:59:31;23.00;21.70
67182;DHT22;54114;53.524;49.396;2023-05-07T10:01:59;22.80;21.80
67182;DHT22;54114;53.524;49.396;2023-05-07T10:04:27;22.90;21.70
67182;DHT22;54114;53.524;49.396;2023-05-07T10:06:54;23.10;21.70
67182;DHT22;54114;53.524;49.396;2023-05-07T10:09:22;23.40;21.30
67182;DHT22;54114;53.524;49.396;2023-05-07T10:11:50;23.60;21.30
67182;DHT22;54114;53.524;49.396;2023-05-07T10:14:23;23.60;21.30
67182;DHT22;54114;53.524;49.396;2023-05-07T10:16:52;23.80;21.60
67182;DHT22;54114;53.524;49.396;2023-05-07T10:19:31;24.10;21.50
67182;DHT22;54114;53.524;49.396;2023-05-07T10:22:06;24.30;21.20
67182;DHT22;54114;53.524;49.396;2023-05-07T10:24:37;24.70;21.10
67182;DHT22;54114;53.524;49.396;2023-05-07T10:27:12;25.10;20.90
67182;DHT22;54114;53.524;49.396;2023-05-07T10:30:00;25.60;20.50
67182;DHT22;54114;53.524;49.396;2023-05-07T10:33:01;25.90;20.50
67182;DHT22;54114;53.524;49.396;2023-05-07T10:35:39;25.90;20.30
67182;DHT22;54114;53.524;49.396;2023-05-07T10:38:13;25.90;20.40
67182;DHT22;54114;53.524;49.396;2023-05-07T10:40:40;25.90;20.30
67182;DHT22;54114;53.524;49.396;2023-05-07T10:43:11;26.10;20.00
67182;DHT22;54114;53.524;49.396;2023-05-07T10:45:40;26.30;20.00
67182;DHT22;54114;53.524;49.396;2023-05-07T10:48:16;26.30;19.90
67182;DHT22;54114;53.524;49.396;2023-05-07T10:50:45;26.50;20.00
67182;DHT22;54114;53.524;49.396;2023-05-07T10:55:47;26.90;20.00
67182;DHT22;54114;53.524;49.396;2023-05-07T11:00:48;26.70;19.70
67182;DHT22;54114;53.524;49.396;2023-05-07T11:03:15;26.50;19.60
67182;DHT22;54114;53.524;49.396;2023-05-07T11:05:42;26.10;19.60
67182;DHT22;54114;53.524;49.396;2023-05-07T11:08:09;26.00;19.80
67182;DHT22;54114;53.524;49.396;2023-05-07T11:10:59;26.00;19.70
67182;DHT22;54114;53.524;49.396;2023-05-07T11:13:42;25.60;19.70
67182;DHT22;54114;53.524;49.396;2023-05-07T11:16:25;25.00;19.60
67182;DHT22;54114;53.524;49.396;2023-05-07T11:18:56;24.50;19.80
67182;DHT22;54114;53.524;49.396;2023-05-07T11:21:41;24.30;20.20
67182;DHT22;54114;53.524;49.396;2023-05-07T11:24:09;24.20;20.10
67182;DHT22;54114;53.524;49.396;2023-05-07T11:26:49;24.20;20.10
67182;DHT22;54114;53.524;49.396;2023-05-07T11:29:20;24.30;20.20
67182;DHT22;54114;53.524;49.396;2023-05-07T11:31:54;24.60;20.10
67182;DHT22;54114;53.524;49.396;2023-05-07T11:34:23;24.70;20.00
67182;DHT22;54114;53.524;49.396;2023-05-07T11:36:51;24.80;19.90
67182;DHT22;54114;53.524;49.396;2023-05-07T11:41:57;24.80;19.90
67182;DHT22;54114;53.524;49.396;2023-05-07T11:44:27;24.80;20.00
67182;DHT22;54114;53.524;49.396;2023-05-07T11:47:17;24.70;20.00
67182;DHT22;54114;53.524;49.396;2023-05-07T11:49:50;24.70;20.10
67182;DHT22;54114;53.524;49.396;2023-05-07T11:52:24;24.90;19.80
67182;DHT22;54114;53.524;49.396;2023-05-07T11:54:57;25.00;19.80
67182;DHT22;54114;53.524;49.396;2023-05-07T11:57:35;25.20;19.90
67182;DHT22;54114;53.524;49.396;2023-05-07T12:00:07;25.30;19.60
67182;DHT22;54114;53.524;49.396;2023-05-07T12:02:35;25.40;19.60
67182;DHT22;54114;53.524;49.396;2023-05-07T12:05:01;25.40;19.70
67182;DHT22;54114;53.524;49.396;2023-05-07T12:07:34;25.50;19.70
67182;DHT22;54114;53.524;49.396;2023-05-07T12:10:07;25.40;19.80
67182;DHT22;54114;53.524;49.396;2023-05-07T12:12:48;25.20;19.70
67182;DHT22;54114;53.524;49.396;2023-05-07T12:15:17;25.20;19.80
67182;DHT22;54114;53.524;49.396;2023-05-07T12:17:49;25.40;19.80
67182;DHT22;54114;53.524;49.396;2023-05-07T12:20:19;25.70;19.80
67182;DHT22;54114;53.524;49.396;2023-05-07T12:22:49;25.50;19.60
67182;DHT22;54114;53.524;49.396;2023-05-07T12:25:19;25.60;19.50
67182;DHT22;54114;53.524;49.396;2023-05-07T12:27:54;25.60;19.60
67182;DHT22;54114;53.524;49.396;2023-05-07T12:30:21;25.60;19.70
67182;DHT22;54114;53.524;49.396;2023-05-07T12:32:53;25.70;19.70
67182;DHT22;54114;53.524;49.396;2023-05-07T12:35:32;25.70;19.60
67182;DHT22;54114;53.524;49.396;2023-05-07T12:38:11;25.70;19.60
67182;DHT22;54114;53.524;49.396;2023-05-07T12:40:42;25.50;19.40
67182;DHT22;54114;53.524;49.396;2023-05-07T12:43:28;25.40;19.50
67182;DHT22;54114;53.524;49.396;2023-05-07T12:46:01;25.10;19.60
67182;DHT22;54114;53.524;49.396;2023-05-07T12:48:32;24.90;19.60
67182;DHT22;54114;53.524;49.396;2023-05-07T12:51:05;24.80;20.00
67182;DHT22;54114;53.524;49.396;2023-05-07T12:53:42;24.70;19.80
67182;DHT22;54114;53.524;49.396;2023-05-07T12:56:15;24.50;19.90
67182;DHT22;54114;53.524;49.396;2023-05-07T12:58:44;24.50;20.00
67182;DHT22;54114;53.524;49.396;2023-05-07T13:01:11;24.50;20.00
67182;DHT22;54114;53.524;49.396;2023-05-07T13:03:41;24.40;20.00
67182;DHT22;54114;53.524;49.396;2023-05-07T13:06:10;24.30;20.00
67182;DHT22;54114;53.524;49.396;2023-05-07T13:08:40;24.20;20.00
67182;DHT22;54114;53.524;49.396;2023-05-07T13:11:10;24.10;20.00
67182;DHT22;54114;53.524;49.396;2023-05-07T13:13:38;24.10;20.00
67182;DHT22;54114;53.524;49.396;2023-05-07T13:16:10;24.20;20.00
67182;DHT22;54114;53.524;49.396;2023-05-07T13:18:40;24.30;19.90
67182;DHT22;54114;53.524;49.396;2023-05-07T13:21:11;24.20;20.00
67182;DHT22;54114;53.524;49.396;2023-05-07T13:23:41;24.20;20.10
67182;DHT22;54114;53.524;49.396;2023-05-07T13:26:10;24.10;20.10
67182;DHT22;54114;53.524;49.396;2023-05-07T13:28:44;24.10;20.10
67182;DHT22;54114;53.524;49.396;2023-05-07T13:31:14;23.90;20.20
67182;DHT22;54114;53.524;49.396;2023-05-07T13:33:43;23.70;20.40
67182;DHT22;54114;53.524;49.396;2023-05-07T13:36:12;23.70;20.40
67182;DHT22;54114;53.524;49.396;2023-05-07T13:38:41;23.70;20.30
67182;DHT22;54114;53.524;49.396;2023-05-07T13:41:12;23.70;20.40
67182;DHT22;54114;53.524;49.396;2023-05-07T13:43:42;23.60;20.50
67182;DHT22;54114;53.524;49.396;2023-05-07T13:46:08;23.40;20.50
67182;DHT22;54114;53.524;49.396;2023-05-07T13:48:35;23.30;20.70
67182;DHT22;54114;53.524;49.396;2023-05-07T13:51:04;23.20;20.70
67182;DHT22;54114;53.524;49.396;2023-05-07T13:53:36;23.10;20.80
67182;DHT22;54114;53.524;49.396;2023-05-07T13:56:08;23.00;20.80
67182;DHT22;54114;53.524;49.396;2023-05-07T13:58:37;23.10;20.90
67182;DHT22;54114;53.524;49.396;2023-05-07T14:01:03;23.30;20.80
67182;DHT22;54114;53.524;49.396;2023-05-07T14:03:30;23.30;20.80
67182;DHT22;54114;53.524;49.396;2023-05-07T14:06:01;23.40;20.80
67182;DHT22;54114;53.524;49.396;2023-05-07T14:08:32;23.60;20.70
67182;DHT22;54114;53.524;49.396;2023-05-07T14:11:01;23.80;20.50
67182;DHT22;54114;53.524;49.396;2023-05-07T14:13:30;23.70;20.40
67182;DHT22;54114;53.524;49.396;2023-05-07T14:16:03;23.70;20.50
67182;DHT22;54114;53.524;49.396;2023-05-07T14:18:33;23.60;20.50
67182;DHT22;54114;53.524;49.396;2023-05-07T14:21:01;23.70;20.50
67182;DHT22;54114;53.524;49.396;2023-05-07T14:23:27;23.70;20.50
67182;DHT22;54114;53.524;49.396;2023-05-07T14:25:57;23.80;20.60
67182;DHT22;54114;53.524;49.396;2023-05-07T14:28:24;23.80;20.60
67182;DHT22;54114;53.524;49.396;2023-05-07T14:30:50;23.90;20.60
67182;DHT22;54114;53.524;49.396;2023-05-07T14:33:22;23.80;20.50
67182;DHT22;54114;53.524;49.396;2023-05-07T14:35:49;23.70;20.50
67182;DHT22;54114;53.524;49.396;2023-05-07T14:38:21;23.60;20.50
67182;DHT22;54114;53.524;49.396;2023-05-07T14:40:53;23.40;20.60
67182;DHT22;54114;53.524;49.396;2023-05-07T14:43:22;23.10;20.60
67182;DHT22;54114;53.524;49.396;2023-05-07T14:45:51;22.80;20.70
67182;DHT22;54114;53.524;49.396;2023-05-07T14:48:20;22.60;20.70
67182;DHT22;54114;53.524;49.396;2023-05-07T14:50:52;22.30;20.70
67182;DHT22;54114;53.524;49.396;2023-05-07T14:53:19;22.10;21.00
67182;DHT22;54114;53.524;49.396;2023-05-07T14:55:48;21.80;21.20
67182;DHT22;54114;53.524;49.396;2023-05-07T14:58:17;21.70;21.10
67182;DHT22;54114;53.524;49.396;2023-05-07T15:00:46;21.60;21.30
67182;DHT22;54114;53.524;49.396;2023-05-07T15:03:18;21.40;21.40
67182;DHT22;54114;53.524;49.396;2023-05-07T15:05:47;21.30;21.50
67182;DHT22;54114;53.524;49.396;2023-05-07T15:08:19;21.20;21.50
67182;DHT22;54114;53.524;49.396;2023-05-07T15:10:50;21.20;21.60
67182;DHT22;54114;53.524;49.396;2023-05-07T15:13:17;21.20;21.60
67182;DHT22;54114;53.524;49.396;2023-05-07T15:15:46;21.20;21.50
67182;DHT22;54114;53.524;49.396;2023-05-07T15:18:14;21.20;21.60
67182;DHT22;54114;53.524;49.396;2023-05-07T15:20:41;21.20;21.60
67182;DHT22;54114;53.524;49.396;2023-05-07T15:23:11;21.10;21.60
67182;DHT22;54114;53.524;49.396;2023-05-07T15:25:40;21.10;21.70
67182;DHT22;54114;53.524;49.396;2023-05-07T15:28:06;20.90;21.60
67182;DHT22;54114;53.524;49.396;2023-05-07T15:30:33;20.80;21.70
67182;DHT22;54114;53.524;49.396;2023-05-07T15:33:01;20.50;21.80
67182;DHT22;54114;53.524;49.396;2023-05-07T15:35:28;20.40;22.00
67182;DHT22;54114;53.524;49.396;2023-05-07T15:37:55;20.00;22.10
67182;DHT22;54114;53.524;49.396;2023-05-07T15:40:22;19.80;22.30